84PA weather

Ged Heliport
Birdsboro, Pennsylvania, United States

Public forecast

Using degrees Fahrenheit for public forecast. Weather courtesy of forecast.io.

Closest aviation weather report (METAR) to Ged Heliport

Closest report is Reading Regional Carl A Spaatz Field, 7.6 nm (14.1 km) WNW. Retrieved 2019/11/18 11:54 UTC (49 minutes ago):

KRDG 181154Z 03004KT 10SM OVC012 02/01 A2991 RMK AO2 SLP135 T00220006 10022 20017 58003

Closest aviation forecast (TAF) to Ged Heliport

Closest forecast is Reading Regional Carl A Spaatz Field, 7.6 nm (14.1 km) WNW. Retrieved 2019/11/18 12:33 UTC (10 minutes ago):

TAF KRDG 181131Z 1812/1912 03006KT P6SM OVC015 FM181400 36006KT P6SM OVC020 FM190000 VRB04KT 6SM -RA BR OVC025 FM190600 VRB04KT P6SM BKN035